sensor_id;sensor_type;location;lat;lon;timestamp;pressure;altitude;pressure_sealevel;temperature;humidity
58373;BME280;44177;43.356;27.672;2023-01-27T00:00:25;97644.25;;;6.31;65.22
58373;BME280;44177;43.356;27.672;2023-01-27T00:02:51;97646.97;;;6.31;65.10
58373;BME280;44177;43.356;27.672;2023-01-27T00:05:16;97652.38;;;6.31;65.20
58373;BME280;44177;43.356;27.672;2023-01-27T00:07:43;97639.19;;;6.30;65.18
58373;BME280;44177;43.356;27.672;2023-01-27T00:10:17;97622.59;;;6.31;65.31
58373;BME280;44177;43.356;27.672;2023-01-27T00:12:45;97619.09;;;6.31;65.28
58373;BME280;44177;43.356;27.672;2023-01-27T00:15:30;97625.28;;;6.31;65.19
58373;BME280;44177;43.356;27.672;2023-01-27T00:17:56;97602.03;;;6.30;65.11
58373;BME280;44177;43.356;27.672;2023-01-27T00:20:22;97586.59;;;6.31;65.38
58373;BME280;44177;43.356;27.672;2023-01-27T00:23:26;97586.91;;;6.29;65.34
58373;BME280;44177;43.356;27.672;2023-01-27T00:26:16;97601.25;;;6.30;65.32
58373;BME280;44177;43.356;27.672;2023-01-27T00:28:44;97600.44;;;6.29;65.18
58373;BME280;44177;43.356;27.672;2023-01-27T00:31:12;97591.19;;;6.30;65.22
58373;BME280;44177;43.356;27.672;2023-01-27T00:33:57;97581.47;;;6.29;65.23
58373;BME280;44177;43.356;27.672;2023-01-27T00:36:29;97585.78;;;6.30;65.30
58373;BME280;44177;43.356;27.672;2023-01-27T00:38:55;97595.03;;;6.29;65.33
58373;BME280;44177;43.356;27.672;2023-01-27T00:41:20;97588.84;;;6.29;65.47
58373;BME280;44177;43.356;27.672;2023-01-27T00:43:49;97595.03;;;6.29;65.41
58373;BME280;44177;43.356;27.672;2023-01-27T00:46:16;97592.31;;;6.29;65.37
58373;BME280;44177;43.356;27.672;2023-01-27T00:48:42;97596.63;;;6.30;65.39
58373;BME280;44177;43.356;27.672;2023-01-27T00:51:08;97603.63;;;6.31;65.30
58373;BME280;44177;43.356;27.672;2023-01-27T00:53:34;97616.03;;;6.32;65.36
58373;BME280;44177;43.356;27.672;2023-01-27T00:56:00;97622.59;;;6.31;65.37
58373;BME280;44177;43.356;27.672;2023-01-27T00:58:26;97597.31;;;6.27;65.20
58373;BME280;44177;43.356;27.672;2023-01-27T01:00:54;97595.50;;;6.31;65.40
58373;BME280;44177;43.356;27.672;2023-01-27T01:03:20;97589.28;;;6.31;65.49
58373;BME280;44177;43.356;27.672;2023-01-27T01:05:46;97590.06;;;6.31;65.19
58373;BME280;44177;43.356;27.672;2023-01-27T01:08:11;97591.66;;;6.32;65.37
58373;BME280;44177;43.356;27.672;2023-01-27T01:10:37;97601.69;;;6.32;65.33
58373;BME280;44177;43.356;27.672;2023-01-27T01:13:04;97611.75;;;6.31;65.38
58373;BME280;44177;43.356;27.672;2023-01-27T01:15:34;97601.13;;;6.26;65.28
58373;BME280;44177;43.356;27.672;2023-01-27T01:18:00;97619.88;;;6.31;65.46
58373;BME280;44177;43.356;27.672;2023-01-27T01:20:26;97629.94;;;6.31;65.33
58373;BME280;44177;43.356;27.672;2023-01-27T01:22:51;97620.66;;;6.32;65.35
58373;BME280;44177;43.356;27.672;2023-01-27T01:25:17;97619.09;;;6.31;65.41
58373;BME280;44177;43.356;27.672;2023-01-27T01:27:43;97626.88;;;6.32;65.20
58373;BME280;44177;43.356;27.672;2023-01-27T01:30:10;97607.66;;;6.25;65.37
58373;BME280;44177;43.356;27.672;2023-01-27T01:32:36;97599.78;;;6.32;65.34
58373;BME280;44177;43.356;27.672;2023-01-27T01:35:01;97605.22;;;6.32;65.40
58373;BME280;44177;43.356;27.672;2023-01-27T01:37:27;97601.38;;;6.34;65.39
58373;BME280;44177;43.356;27.672;2023-01-27T01:39:52;97583.53;;;6.32;65.40
58373;BME280;44177;43.356;27.672;2023-01-27T01:42:18;97567.28;;;6.32;65.40
58373;BME280;44177;43.356;27.672;2023-01-27T01:44:43;97568.06;;;6.33;65.31
58373;BME280;44177;43.356;27.672;2023-01-27T01:47:18;97556.66;;;6.27;65.32
58373;BME280;44177;43.356;27.672;2023-01-27T01:49:45;97563.44;;;6.34;65.27
58373;BME280;44177;43.356;27.672;2023-01-27T01:52:17;97558.03;;;6.34;65.18
58373;BME280;44177;43.356;27.672;2023-01-27T01:54:53;97555.63;;;6.32;65.46
58373;BME280;44177;43.356;27.672;2023-01-27T01:57:24;97535.53;;;6.21;65.32
58373;BME280;44177;43.356;27.672;2023-01-27T01:59:58;97561.41;;;6.30;65.59
58373;BME280;44177;43.356;27.672;2023-01-27T02:02:25;97559.50;;;6.31;65.46
58373;BME280;44177;43.356;27.672;2023-01-27T02:05:03;97560.28;;;6.31;65.49
58373;BME280;44177;43.356;27.672;2023-01-27T02:09:59;97542.31;;;6.27;65.58
58373;BME280;44177;43.356;27.672;2023-01-27T02:12:25;97561.06;;;6.32;65.54
58373;BME280;44177;43.356;27.672;2023-01-27T02:14:50;97549.44;;;6.31;65.64
58373;BME280;44177;43.356;27.672;2023-01-27T02:17:16;97556.44;;;6.32;65.43
58373;BME280;44177;43.356;27.672;2023-01-27T02:25:06;97526.66;;;6.32;65.45
58373;BME280;44177;43.356;27.672;2023-01-27T02:27:35;97523.94;;;6.32;65.60
58373;BME280;44177;43.356;27.672;2023-01-27T02:30:01;97508.47;;;6.33;65.55
58373;BME280;44177;43.356;27.672;2023-01-27T02:32:26;97509.28;;;6.34;65.46
58373;BME280;44177;43.356;27.672;2023-01-27T02:34:54;97505.44;;;6.35;65.43
58373;BME280;44177;43.356;27.672;2023-01-27T02:37:22;97515.47;;;6.34;65.49
58373;BME280;44177;43.356;27.672;2023-01-27T02:39:49;97503.84;;;6.34;65.66
58373;BME280;44177;43.356;27.672;2023-01-27T02:42:16;97490.97;;;6.30;65.68
58373;BME280;44177;43.356;27.672;2023-01-27T02:44:43;97472.81;;;6.31;65.50
58373;BME280;44177;43.356;27.672;2023-01-27T02:47:09;97475.63;;;6.35;65.47
58373;BME280;44177;43.356;27.672;2023-01-27T02:49:34;97462.09;;;6.35;65.45
58373;BME280;44177;43.356;27.672;2023-01-27T02:51:59;97445.84;;;6.35;65.45
58373;BME280;44177;43.356;27.672;2023-01-27T02:54:26;97436.91;;;6.34;65.42
58373;BME280;44177;43.356;27.672;2023-01-27T02:56:51;97429.59;;;6.35;65.45
58373;BME280;44177;43.356;27.672;2023-01-27T02:59:17;97429.59;;;6.35;65.49
58373;BME280;44177;43.356;27.672;2023-01-27T03:01:42;97417.94;;;6.34;65.53
58373;BME280;44177;43.356;27.672;2023-01-27T03:04:08;97417.16;;;6.34;65.44
58373;BME280;44177;43.356;27.672;2023-01-27T03:06:36;97423.72;;;6.32;65.39
58373;BME280;44177;43.356;27.672;2023-01-27T03:09:02;97424.16;;;6.35;65.47
58373;BME280;44177;43.356;27.672;2023-01-27T03:11:27;97422.59;;;6.34;65.60
58373;BME280;44177;43.356;27.672;2023-01-27T03:14:11;97417.16;;;6.34;65.55
58373;BME280;44177;43.356;27.672;2023-01-27T03:16:37;97411.75;;;6.34;65.52
58373;BME280;44177;43.356;27.672;2023-01-27T03:19:21;97410.94;;;6.33;65.60
58373;BME280;44177;43.356;27.672;2023-01-27T03:21:46;97399.34;;;6.32;65.64
58373;BME280;44177;43.356;27.672;2023-01-27T03:24:15;97398.53;;;6.32;65.64
58373;BME280;44177;43.356;27.672;2023-01-27T03:26:40;97372.25;;;6.32;65.54
58373;BME280;44177;43.356;27.672;2023-01-27T03:29:06;97383.06;;;6.32;65.73
58373;BME280;44177;43.356;27.672;2023-01-27T03:31:50;97386.56;;;6.33;65.63
58373;BME280;44177;43.356;27.672;2023-01-27T03:34:15;97369.53;;;6.32;65.77
58373;BME280;44177;43.356;27.672;2023-01-27T03:36:41;97356.00;;;6.32;65.57
58373;BME280;44177;43.356;27.672;2023-01-27T03:39:25;97362.53;;;6.31;65.62
58373;BME280;44177;43.356;27.672;2023-01-27T03:42:09;97361.41;;;6.32;65.63
58373;BME280;44177;43.356;27.672;2023-01-27T03:44:53;97371.44;;;6.32;65.74
58373;BME280;44177;43.356;27.672;2023-01-27T03:47:36;97386.91;;;6.31;65.65
58373;BME280;44177;43.356;27.672;2023-01-27T03:50:02;97393.09;;;6.32;65.62
58373;BME280;44177;43.356;27.672;2023-01-27T03:52:35;97399.34;;;6.32;65.83
58373;BME280;44177;43.356;27.672;2023-01-27T03:55:01;97409.34;;;6.32;65.77
58373;BME280;44177;43.356;27.672;2023-01-27T03:57:26;97409.03;;;6.34;65.70
58373;BME280;44177;43.356;27.672;2023-01-27T03:59:51;97409.34;;;6.32;65.58
58373;BME280;44177;43.356;27.672;2023-01-27T04:02:17;97398.53;;;6.32;65.74
58373;BME280;44177;43.356;27.672;2023-01-27T04:05:01;97411.63;;;6.30;65.73
58373;BME280;44177;43.356;27.672;2023-01-27T04:07:45;97422.13;;;6.31;65.69
58373;BME280;44177;43.356;27.672;2023-01-27T04:10:12;97426.75;;;6.31;65.62
58373;BME280;44177;43.356;27.672;2023-01-27T04:12:37;97431.84;;;6.32;65.73
58373;BME280;44177;43.356;27.672;2023-01-27T04:15:03;97433.75;;;6.32;65.67
58373;BME280;44177;43.356;27.672;2023-01-27T04:17:29;97434.53;;;6.32;65.83
58373;BME280;44177;43.356;27.672;2023-01-27T04:19:54;97442.69;;;6.32;65.58
58373;BME280;44177;43.356;27.672;2023-01-27T04:22:20;97439.63;;;6.34;65.69
58373;BME280;44177;43.356;27.672;2023-01-27T04:24:45;97441.56;;;6.34;65.73
58373;BME280;44177;43.356;27.672;2023-01-27T04:27:12;97445.03;;;6.34;65.70
58373;BME280;44177;43.356;27.672;2023-01-27T04:29:40;97435.31;;;6.33;65.68
58373;BME280;44177;43.356;27.672;2023-01-27T04:32:11;97433.41;;;6.34;65.78
58373;BME280;44177;43.356;27.672;2023-01-27T04:34:38;97429.59;;;6.35;65.71
58373;BME280;44177;43.356;27.672;2023-01-27T04:37:05;97426.41;;;6.32;65.63
58373;BME280;44177;43.356;27.672;2023-01-27T04:39:32;97433.41;;;6.34;65.79
58373;BME280;44177;43.356;27.672;2023-01-27T04:41:58;97428.78;;;6.34;65.77
58373;BME280;44177;43.356;27.672;2023-01-27T04:44:23;97418.63;;;6.31;65.66
58373;BME280;44177;43.356;27.672;2023-01-27T04:46:50;97419.88;;;6.34;65.86
58373;BME280;44177;43.356;27.672;2023-01-27T04:49:16;97432.63;;;6.33;65.80
58373;BME280;44177;43.356;27.672;2023-01-27T04:51:42;97423.59;;;6.29;65.59
58373;BME280;44177;43.356;27.672;2023-01-27T04:54:08;97412.41;;;6.30;65.86
58373;BME280;44177;43.356;27.672;2023-01-27T04:56:35;97418.75;;;6.35;65.75
58373;BME280;44177;43.356;27.672;2023-01-27T04:59:03;97410.63;;;6.35;65.77
58373;BME280;44177;43.356;27.672;2023-01-27T05:01:29;97413.34;;;6.35;65.60
58373;BME280;44177;43.356;27.672;2023-01-27T05:03:55;97409.47;;;6.36;65.90
58373;BME280;44177;43.356;27.672;2023-01-27T05:06:22;97406.75;;;6.36;65.82
58373;BME280;44177;43.356;27.672;2023-01-27T05:08:48;97416.03;;;6.35;65.92
58373;BME280;44177;43.356;27.672;2023-01-27T05:11:13;97403.28;;;6.35;65.70
58373;BME280;44177;43.356;27.672;2023-01-27T05:13:39;97391.66;;;6.35;65.75
58373;BME280;44177;43.356;27.672;2023-01-27T05:16:19;97406.75;;;6.36;65.74
58373;BME280;44177;43.356;27.672;2023-01-27T05:18:47;97402.50;;;6.35;65.82
58373;BME280;44177;43.356;27.672;2023-01-27T05:21:19;97399.78;;;6.35;65.75
58373;BME280;44177;43.356;27.672;2023-01-27T05:23:45;97399.78;;;6.35;65.78
58373;BME280;44177;43.356;27.672;2023-01-27T05:26:22;97391.66;;;6.35;65.93
58373;BME280;44177;43.356;27.672;2023-01-27T05:28:49;97397.09;;;6.35;65.82
58373;BME280;44177;43.356;27.672;2023-01-27T05:31:20;97391.66;;;6.35;66.01
58373;BME280;44177;43.356;27.672;2023-01-27T05:33:48;97390.06;;;6.34;65.87
58373;BME280;44177;43.356;27.672;2023-01-27T05:36:16;97390.84;;;6.34;65.80
58373;BME280;44177;43.356;27.672;2023-01-27T05:38:42;97386.25;;;6.35;65.91
58373;BME280;44177;43.356;27.672;2023-01-27T05:41:09;97380.03;;;6.34;65.91
58373;BME280;44177;43.356;27.672;2023-01-27T05:43:36;97376.53;;;6.34;65.87
58373;BME280;44177;43.356;27.672;2023-01-27T05:48:36;97373.81;;;6.34;65.83
58373;BME280;44177;43.356;27.672;2023-01-27T05:51:02;97364.78;;;6.29;65.87
58373;BME280;44177;43.356;27.672;2023-01-27T05:53:28;97370.00;;;6.35;65.93
58373;BME280;44177;43.356;27.672;2023-01-27T05:55:53;97366.47;;;6.34;65.92
58373;BME280;44177;43.356;27.672;2023-01-27T05:58:20;97363.78;;;6.34;66.02
58373;BME280;44177;43.356;27.672;2023-01-27T06:00:45;97375.41;;;6.35;66.09
58373;BME280;44177;43.356;27.672;2023-01-27T06:03:11;97374.59;;;6.34;65.95
58373;BME280;44177;43.356;27.672;2023-01-27T06:05:37;97380.03;;;6.34;65.99
58373;BME280;44177;43.356;27.672;2023-01-27T06:08:02;97370.31;;;6.33;65.94
58373;BME280;44177;43.356;27.672;2023-01-27T06:10:28;97371.13;;;6.34;65.94
58373;BME280;44177;43.356;27.672;2023-01-27T06:12:53;97368.41;;;6.34;65.98
58373;BME280;44177;43.356;27.672;2023-01-27T06:15:19;97371.91;;;6.34;65.93
58373;BME280;44177;43.356;27.672;2023-01-27T06:17:44;97360.28;;;6.34;65.94
58373;BME280;44177;43.356;27.672;2023-01-27T06:20:10;97353.75;;;6.35;65.85
58373;BME280;44177;43.356;27.672;2023-01-27T06:22:35;97341.31;;;6.34;66.13
58373;BME280;44177;43.356;27.672;2023-01-27T06:25:01;97353.75;;;6.35;66.02
58373;BME280;44177;43.356;27.672;2023-01-27T06:27:26;97342.91;;;6.35;65.95
58373;BME280;44177;43.356;27.672;2023-01-27T06:29:52;97341.31;;;6.34;66.01
58373;BME280;44177;43.356;27.672;2023-01-27T06:32:17;97330.47;;;6.34;66.12
58373;BME280;44177;43.356;27.672;2023-01-27T06:34:43;97335.91;;;6.34;66.08
58373;BME280;44177;43.356;27.672;2023-01-27T06:37:08;97328.91;;;6.32;66.07
58373;BME280;44177;43.356;27.672;2023-01-27T06:39:33;97323.13;;;6.34;66.05
58373;BME280;44177;43.356;27.672;2023-01-27T06:41:59;97323.94;;;6.35;65.91
58373;BME280;44177;43.356;27.672;2023-01-27T06:44:24;97319.66;;;6.34;66.08
58373;BME280;44177;43.356;27.672;2023-01-27T06:46:50;97314.91;;;6.30;65.96
58373;BME280;44177;43.356;27.672;2023-01-27T06:49:17;97328.56;;;6.34;66.04
58373;BME280;44177;43.356;27.672;2023-01-27T06:51:43;97321.22;;;6.35;66.10
58373;BME280;44177;43.356;27.672;2023-01-27T06:54:09;97321.22;;;6.35;66.01
58373;BME280;44177;43.356;27.672;2023-01-27T06:56:34;97332.06;;;6.35;66.07
58373;BME280;44177;43.356;27.672;2023-01-27T06:58:59;97324.72;;;6.35;65.95
58373;BME280;44177;43.356;27.672;2023-01-27T07:01:25;97324.72;;;6.35;66.01
58373;BME280;44177;43.356;27.672;2023-01-27T07:03:50;97329.00;;;6.36;66.08
58373;BME280;44177;43.356;27.672;2023-01-27T07:06:16;97333.63;;;6.36;66.11
58373;BME280;44177;43.356;27.672;2023-01-27T07:08:43;97345.63;;;6.35;66.22
58373;BME280;44177;43.356;27.672;2023-01-27T07:11:11;97339.03;;;6.36;65.95
58373;BME280;44177;43.356;27.672;2023-01-27T07:13:36;97339.03;;;6.36;65.95
58373;BME280;44177;43.356;27.672;2023-01-27T07:16:02;97339.03;;;6.36;65.97
58373;BME280;44177;43.356;27.672;2023-01-27T07:18:27;97325.06;;;6.34;66.06
58373;BME280;44177;43.356;27.672;2023-01-27T07:20:53;97304.97;;;6.35;65.96
58373;BME280;44177;43.356;27.672;2023-01-27T07:23:19;97313.88;;;6.35;65.99
58373;BME280;44177;43.356;27.672;2023-01-27T07:25:44;97323.59;;;6.36;66.02
58373;BME280;44177;43.356;27.672;2023-01-27T07:28:10;97319.66;;;6.34;66.17
58373;BME280;44177;43.356;27.672;2023-01-27T07:30:35;97315.47;;;6.36;66.13
58373;BME280;44177;43.356;27.672;2023-01-27T07:33:07;97315.81;;;6.35;66.17
58373;BME280;44177;43.356;27.672;2023-01-27T07:35:35;97314.66;;;6.36;66.33
58373;BME280;44177;43.356;27.672;2023-01-27T07:38:00;97313.09;;;6.35;66.14
58373;BME280;44177;43.356;27.672;2023-01-27T07:40:26;97322.78;;;6.36;66.14
58373;BME280;44177;43.356;27.672;2023-01-27T07:42:51;97326.31;;;6.36;66.04
58373;BME280;44177;43.356;27.672;2023-01-27T07:45:17;97325.50;;;6.36;66.06
58373;BME280;44177;43.356;27.672;2023-01-27T07:47:42;97324.38;;;6.37;66.20
58373;BME280;44177;43.356;27.672;2023-01-27T07:50:08;97334.44;;;6.36;66.26
58373;BME280;44177;43.356;27.672;2023-01-27T07:52:34;97339.84;;;6.36;66.09
58373;BME280;44177;43.356;27.672;2023-01-27T07:54:59;97340.63;;;6.37;66.17
58373;BME280;44177;43.356;27.672;2023-01-27T07:57:25;97335.19;;;6.37;66.08
58373;BME280;44177;43.356;27.672;2023-01-27T07:59:51;97319.97;;;6.32;66.04
58373;BME280;44177;43.356;27.672;2023-01-27T08:02:20;97321.66;;;6.37;66.22
58373;BME280;44177;43.356;27.672;2023-01-27T08:04:49;97329.78;;;6.37;66.08
58373;BME280;44177;43.356;27.672;2023-01-27T08:07:22;97321.66;;;6.37;66.10
58373;BME280;44177;43.356;27.672;2023-01-27T08:09:47;97318.94;;;6.37;66.07
58373;BME280;44177;43.356;27.672;2023-01-27T08:12:13;97321.66;;;6.37;66.17
58373;BME280;44177;43.356;27.672;2023-01-27T08:14:38;97315.13;;;6.38;66.17
58373;BME280;44177;43.356;27.672;2023-01-27T08:17:04;97314.34;;;6.37;66.30
58373;BME280;44177;43.356;27.672;2023-01-27T08:19:30;97316.25;;;6.37;66.14
58373;BME280;44177;43.356;27.672;2023-01-27T08:21:55;97315.81;;;6.35;66.26
58373;BME280;44177;43.356;27.672;2023-01-27T08:24:20;97334.06;;;6.38;66.24
58373;BME280;44177;43.356;27.672;2023-01-27T08:26:46;97321.34;;;6.38;66.23
58373;BME280;44177;43.356;27.672;2023-01-27T08:29:11;97305.41;;;6.37;66.17
58373;BME280;44177;43.356;27.672;2023-01-27T08:31:37;97311.28;;;6.39;66.04
58373;BME280;44177;43.356;27.672;2023-01-27T08:34:02;97305.88;;;6.39;66.17
58373;BME280;44177;43.356;27.672;2023-01-27T08:36:28;97285.56;;;6.32;66.26
58373;BME280;44177;43.356;27.672;2023-01-27T08:38:54;97289.59;;;6.39;66.16
58373;BME280;44177;43.356;27.672;2023-01-27T08:41:24;97289.59;;;6.39;66.14
58373;BME280;44177;43.356;27.672;2023-01-27T08:43:52;97279.13;;;6.37;66.06
58373;BME280;44177;43.356;27.672;2023-01-27T08:46:18;97273.34;;;6.39;66.14
58373;BME280;44177;43.356;27.672;2023-01-27T08:48:43;97259.03;;;6.38;66.19
58373;BME280;44177;43.356;27.672;2023-01-27T08:51:11;97251.69;;;6.39;66.15
58373;BME280;44177;43.356;27.672;2023-01-27T08:53:37;97250.91;;;6.38;66.01
58373;BME280;44177;43.356;27.672;2023-01-27T08:56:06;97246.25;;;6.39;66.22
58373;BME280;44177;43.356;27.672;2023-01-27T08:58:32;97232.25;;;6.37;66.18
58373;BME280;44177;43.356;27.672;2023-01-27T09:00:59;97246.25;;;6.39;66.17
58373;BME280;44177;43.356;27.672;2023-01-27T09:03:26;97253.63;;;6.38;66.16
58373;BME280;44177;43.356;27.672;2023-01-27T09:05:51;97239.25;;;6.38;66.22
58373;BME280;44177;43.356;27.672;2023-01-27T09:08:16;97243.56;;;6.39;66.06
58373;BME280;44177;43.356;27.672;2023-01-27T09:10:42;97239.16;;;6.34;66.22
58373;BME280;44177;43.356;27.672;2023-01-27T09:13:08;97230.00;;;6.39;66.30
58373;BME280;44177;43.356;27.672;2023-01-27T09:15:36;97224.59;;;6.39;66.11
58373;BME280;44177;43.356;27.672;2023-01-27T09:18:03;97220.75;;;6.40;66.06
58373;BME280;44177;43.356;27.672;2023-01-27T09:20:29;97216.81;;;6.37;66.17
58373;BME280;44177;43.356;27.672;2023-01-27T09:22:56;97216.47;;;6.39;66.06
58373;BME280;44177;43.356;27.672;2023-01-27T09:25:22;97209.00;;;6.36;66.22
58373;BME280;44177;43.356;27.672;2023-01-27T09:27:47;97207.22;;;6.40;66.30
58373;BME280;44177;43.356;27.672;2023-01-27T09:30:14;97209.91;;;6.40;66.14
58373;BME280;44177;43.356;27.672;2023-01-27T09:32:41;97207.22;;;6.40;66.14
58373;BME280;44177;43.356;27.672;2023-01-27T09:35:07;97196.72;;;6.38;66.19
58373;BME280;44177;43.356;27.672;2023-01-27T09:37:36;97192.09;;;6.39;66.17
58373;BME280;44177;43.356;27.672;2023-01-27T09:40:08;97194.78;;;6.39;66.22
58373;BME280;44177;43.356;27.672;2023-01-27T09:42:50;97186.31;;;6.40;66.19
58373;BME280;44177;43.356;27.672;2023-01-27T09:50:52;97189.38;;;6.39;66.29
58373;BME280;44177;43.356;27.672;2023-01-27T09:53:26;97187.44;;;6.39;66.14
58373;BME280;44177;43.356;27.672;2023-01-27T09:56:08;97188.25;;;6.40;66.44
58373;BME280;44177;43.356;27.672;2023-01-27T10:03:50;97215.34;;;6.40;66.22
58373;BME280;44177;43.356;27.672;2023-01-27T10:14:21;97219.63;;;6.41;66.28
58373;BME280;44177;43.356;27.672;2023-01-27T10:27:23;97202.25;;;6.42;66.28
58373;BME280;44177;43.356;27.672;2023-01-27T10:30:18;97194.13;;;6.42;66.47
58373;BME280;44177;43.356;27.672;2023-01-27T10:33:18;97195.25;;;6.41;66.45
58373;BME280;44177;43.356;27.672;2023-01-27T10:35:53;97189.81;;;6.41;66.33
58373;BME280;44177;43.356;27.672;2023-01-27T10:41:28;97182.81;;;6.40;66.36
58373;BME280;44177;43.356;27.672;2023-01-27T10:49:55;97133.72;;;6.41;66.29
58373;BME280;44177;43.356;27.672;2023-01-27T10:52:39;97130.22;;;6.41;66.35
58373;BME280;44177;43.356;27.672;2023-01-27T10:55:21;97124.81;;;6.41;66.38
58373;BME280;44177;43.356;27.672;2023-01-27T10:57:52;97115.56;;;6.42;66.26
58373;BME280;44177;43.356;27.672;2023-01-27T11:00:28;97100.88;;;6.43;66.35
58373;BME280;44177;43.356;27.672;2023-01-27T11:03:05;97091.59;;;6.44;66.14
58373;BME280;44177;43.356;27.672;2023-01-27T11:05:39;97080.34;;;6.42;66.30
58373;BME280;44177;43.356;27.672;2023-01-27T11:08:27;97065.31;;;6.44;66.33
58373;BME280;44177;43.356;27.672;2023-01-27T11:10:56;97064.19;;;6.45;66.36
58373;BME280;44177;43.356;27.672;2023-01-27T11:13:41;97049.81;;;6.45;66.17
58373;BME280;44177;43.356;27.672;2023-01-27T11:16:18;97047.56;;;6.47;66.15
58373;BME280;44177;43.356;27.672;2023-01-27T11:18:56;97035.75;;;6.39;66.06
58373;BME280;44177;43.356;27.672;2023-01-27T11:21:26;97034.38;;;6.45;66.12
58373;BME280;44177;43.356;27.672;2023-01-27T11:23:54;97037.41;;;6.44;66.16
58373;BME280;44177;43.356;27.672;2023-01-27T11:29:22;97011.91;;;6.45;66.38
58373;BME280;44177;43.356;27.672;2023-01-27T11:37:36;96987.97;;;6.47;66.28
58373;BME280;44177;43.356;27.672;2023-01-27T11:40:02;96979.84;;;6.47;66.17
58373;BME280;44177;43.356;27.672;2023-01-27T11:42:35;96970.13;;;6.46;66.25
58373;BME280;44177;43.356;27.672;2023-01-27T11:45:01;96980.19;;;6.45;66.29
58373;BME280;44177;43.356;27.672;2023-01-27T11:47:29;96968.38;;;6.38;66.49
58373;BME280;44177;43.356;27.672;2023-01-27T11:49:56;96983.22;;;6.44;66.26
58373;BME280;44177;43.356;27.672;2023-01-27T11:52:23;96983.22;;;6.44;66.38
58373;BME280;44177;43.356;27.672;2023-01-27T11:55:14;96972.06;;;6.45;66.36
58373;BME280;44177;43.356;27.672;2023-01-27T11:57:44;96980.97;;;6.46;66.31
58373;BME280;44177;43.356;27.672;2023-01-27T12:05:33;96969.34;;;6.45;66.21
58373;BME280;44177;43.356;27.672;2023-01-27T12:08:03;96969.34;;;6.45;66.29
58373;BME280;44177;43.356;27.672;2023-01-27T12:10:34;96976.69;;;6.45;66.25
58373;BME280;44177;43.356;27.672;2023-01-27T12:15:32;96979.38;;;6.45;66.34
58373;BME280;44177;43.356;27.672;2023-01-27T12:18:00;96979.38;;;6.45;66.33
58373;BME280;44177;43.356;27.672;2023-01-27T12:20:31;96972.84;;;6.46;66.33
58373;BME280;44177;43.356;27.672;2023-01-27T12:23:13;96970.94;;;6.46;66.16
58373;BME280;44177;43.356;27.672;2023-01-27T12:25:47;96982.53;;;6.47;66.35
58373;BME280;44177;43.356;27.672;2023-01-27T12:28:23;96997.22;;;6.46;66.32
58373;BME280;44177;43.356;27.672;2023-01-27T12:30:51;96993.38;;;6.47;66.26
58373;BME280;44177;43.356;27.672;2023-01-27T12:33:30;96987.97;;;6.47;66.35
58373;BME280;44177;43.356;27.672;2023-01-27T12:35:58;96980.59;;;6.47;66.45
58373;BME280;44177;43.356;27.672;2023-01-27T12:38:28;96989.53;;;6.48;66.54
58373;BME280;44177;43.356;27.672;2023-01-27T12:41:06;96983.22;;;6.44;66.43
58373;BME280;44177;43.356;27.672;2023-01-27T12:46:21;96966.56;;;6.42;66.44
58373;BME280;44177;43.356;27.672;2023-01-27T12:51:53;96981.41;;;6.48;66.19
58373;BME280;44177;43.356;27.672;2023-01-27T12:54:23;96978.69;;;6.48;66.42
58373;BME280;44177;43.356;27.672;2023-01-27T12:56:50;96986.81;;;6.48;66.40
58373;BME280;44177;43.356;27.672;2023-01-27T12:59:17;96993.38;;;6.47;66.36
58373;BME280;44177;43.356;27.672;2023-01-27T13:02:17;96998.03;;;6.46;66.16
58373;BME280;44177;43.356;27.672;2023-01-27T13:04:41;97008.84;;;6.46;66.28
58373;BME280;44177;43.356;27.672;2023-01-27T13:07:14;97006.94;;;6.47;66.12
58373;BME280;44177;43.356;27.672;2023-01-27T13:09:49;97015.06;;;6.47;66.38
58373;BME280;44177;43.356;27.672;2023-01-27T13:12:19;97010.75;;;6.46;66.45
58373;BME280;44177;43.356;27.672;2023-01-27T13:14:49;97015.06;;;6.47;66.39
58373;BME280;44177;43.356;27.672;2023-01-27T13:17:54;97030.53;;;6.46;66.40
58373;BME280;44177;43.356;27.672;2023-01-27T13:20:34;97031.31;;;6.47;66.40
58373;BME280;44177;43.356;27.672;2023-01-27T13:23:14;97026.66;;;6.47;66.58
58373;BME280;44177;43.356;27.672;2023-01-27T13:25:48;97021.25;;;6.47;66.18
58373;BME280;44177;43.356;27.672;2023-01-27T13:28:21;97014.69;;;6.48;66.30
58373;BME280;44177;43.356;27.672;2023-01-27T13:30:52;97007.69;;;6.47;66.39
58373;BME280;44177;43.356;27.672;2023-01-27T13:33:44;97011.22;;;6.48;66.23
58373;BME280;44177;43.356;27.672;2023-01-27T13:36:39;97016.63;;;6.48;66.38
58373;BME280;44177;43.356;27.672;2023-01-27T13:45:03;97004.91;;;6.44;66.31
58373;BME280;44177;43.356;27.672;2023-01-27T13:50:30;97015.06;;;6.47;66.37
58373;BME280;44177;43.356;27.672;2023-01-27T13:52:58;97011.22;;;6.48;66.37
58373;BME280;44177;43.356;27.672;2023-01-27T14:09:36;96999.56;;;6.47;66.44
58373;BME280;44177;43.356;27.672;2023-01-27T14:17:49;96996.09;;;6.47;66.33
58373;BME280;44177;43.356;27.672;2023-01-27T14:23:26;97002.28;;;6.47;66.63
58373;BME280;44177;43.356;27.672;2023-01-27T14:31:12;97005.78;;;6.48;66.49
58373;BME280;44177;43.356;27.672;2023-01-27T14:33:57;97003.53;;;6.50;66.51
58373;BME280;44177;43.356;27.672;2023-01-27T14:36:44;97001.94;;;6.49;66.50
58373;BME280;44177;43.356;27.672;2023-01-27T14:39:22;96996.53;;;6.49;66.75
58373;BME280;44177;43.356;27.672;2023-01-27T14:41:59;96992.69;;;6.50;66.58
58373;BME280;44177;43.356;27.672;2023-01-27T14:44:55;96989.63;;;6.52;66.61
58373;BME280;44177;43.356;27.672;2023-01-27T14:55:47;97003.53;;;6.50;66.53
58373;BME280;44177;43.356;27.672;2023-01-27T14:58:33;97013.22;;;6.51;66.43
58373;BME280;44177;43.356;27.672;2023-01-27T15:11:43;97038.41;;;6.52;66.55
58373;BME280;44177;43.356;27.672;2023-01-27T15:20:12;97043.00;;;6.51;66.52
58373;BME280;44177;43.356;27.672;2023-01-27T15:26:00;97052.31;;;6.50;66.82
58373;BME280;44177;43.356;27.672;2023-01-27T15:28:31;97058.84;;;6.49;66.76